createdAt,value
2022-08-05T00:01:36.204Z,70.14
2022-08-05T00:04:18.496Z,70.31
2022-08-05T00:06:47.528Z,70.37
2022-08-05T00:09:20.558Z,70.58
2022-08-05T00:11:55.859Z,70.52
2022-08-05T00:14:31.374Z,70.71
2022-08-05T00:17:01.813Z,70.89
2022-08-05T00:19:33.616Z,70.97
2022-08-05T00:22:03.508Z,71.27
2022-08-05T00:24:33.100Z,71.35
2022-08-05T00:27:04.624Z,71.52
2022-08-05T00:29:39.041Z,71.68
2022-08-05T00:32:14.768Z,71.78
2022-08-05T00:35:04.002Z,71.88
2022-08-05T00:37:51.322Z,72.20
2022-08-05T00:40:26.850Z,72.26
2022-08-05T00:43:00.895Z,72.39
2022-08-05T00:45:42.898Z,72.57
2022-08-05T00:48:15.873Z,72.70
2022-08-05T00:50:48.525Z,72.85
2022-08-05T00:54:00.499Z,72.96
2022-08-05T00:56:10.273Z,73.19
2022-08-05T00:58:44.898Z,73.11
2022-08-05T01:01:42.098Z,73.35
2022-08-05T01:04:13.895Z,73.38
2022-08-05T01:06:43.836Z,73.54
2022-08-05T01:09:20.042Z,73.67
2022-08-05T01:11:51.846Z,73.76
2022-08-05T01:14:56.071Z,73.85
2022-08-05T01:17:57.682Z,74.00
2022-08-05T01:21:01.492Z,74.13
2022-08-05T01:23:45.386Z,74.22
2022-08-05T01:26:52.531Z,74.44
2022-08-05T01:29:33.150Z,74.48
2022-08-05T01:32:12.551Z,74.66
2022-08-05T01:35:02.918Z,74.73
2022-08-05T01:37:54.699Z,74.87
2022-08-05T01:40:29.595Z,74.88
2022-08-05T01:43:01.063Z,75.01
2022-08-05T01:45:34.949Z,75.05
2022-08-05T01:48:12.579Z,75.17
2022-08-05T01:50:50.865Z,75.27
2022-08-05T01:53:57.545Z,75.45
2022-08-05T01:56:14.096Z,75.67
2022-08-05T01:59:06.709Z,75.89
2022-08-05T02:01:39.967Z,75.97
2022-08-05T02:04:12.032Z,76.05
2022-08-05T02:06:40.809Z,76.17
2022-08-05T02:09:14.744Z,76.27
2022-08-05T02:12:22.495Z,76.29
2022-08-05T02:15:15.595Z,76.47
2022-08-05T02:18:31.263Z,76.72
2022-08-05T02:20:48.877Z,76.77
2022-08-05T02:23:23.281Z,76.84
2022-08-05T02:25:53.613Z,77.06
2022-08-05T02:28:30.536Z,77.10
2022-08-05T02:31:17.245Z,77.34
2022-08-05T02:34:02.280Z,77.27
2022-08-05T02:36:32.638Z,77.37
2022-08-05T02:39:05.047Z,77.60
2022-08-05T02:41:57.480Z,77.67
2022-08-05T02:44:30.277Z,77.79
2022-08-05T02:47:01.068Z,77.85
2022-08-05T02:49:41.784Z,77.90
2022-08-05T02:52:29.797Z,78.03
2022-08-05T02:55:05.411Z,78.03
2022-08-05T02:58:19.991Z,78.08
2022-08-05T03:00:29.340Z,78.07
2022-08-05T03:02:59.280Z,78.10
2022-08-05T03:06:53.646Z,78.45
2022-08-05T03:08:26.986Z,78.77
2022-08-05T03:11:01.281Z,78.79
2022-08-05T03:13:51.683Z,79.01
2022-08-05T03:16:31.802Z,79.23
2022-08-05T03:19:04.288Z,79.23
2022-08-05T03:21:48.914Z,79.42
2022-08-05T03:24:29.563Z,79.60
2022-08-05T03:27:00.159Z,79.60
2022-08-05T03:29:45.634Z,79.78
2022-08-05T03:32:19.683Z,79.86
2022-08-05T03:34:50.531Z,80.00
2022-08-05T03:37:21.425Z,80.11
2022-08-05T03:40:01.896Z,80.37
2022-08-05T03:42:41.511Z,80.59
2022-08-05T03:45:23.274Z,80.76
2022-08-05T03:47:57.009Z,80.90
2022-08-05T03:50:43.206Z,81.02
2022-08-05T03:55:53.092Z,81.15
2022-08-05T03:56:35.210Z,81.25
2022-08-05T03:59:09.711Z,81.36
2022-08-05T04:01:45.226Z,81.39
2022-08-05T04:04:21.245Z,81.81
2022-08-05T04:06:51.763Z,81.80
2022-08-05T04:09:25.980Z,81.94
2022-08-05T04:11:57.137Z,82.08
2022-08-05T04:14:29.733Z,82.12
2022-08-05T04:17:00.646Z,82.25
2022-08-05T04:19:30.086Z,82.34
2022-08-05T04:22:10.401Z,82.46
2022-08-05T04:24:43.869Z,82.53
2022-08-05T04:27:13.958Z,82.64
2022-08-05T04:29:43.910Z,82.87
2022-08-05T04:32:14.014Z,83.12
2022-08-05T04:34:48.539Z,83.16
2022-08-05T04:37:17.056Z,83.34
2022-08-05T04:39:45.658Z,83.36
2022-08-05T04:42:25.356Z,83.43
2022-08-05T04:44:54.185Z,83.51
2022-08-05T04:47:23.033Z,83.68
2022-08-05T04:50:02.569Z,83.85
2022-08-05T04:52:39.612Z,85.38
2022-08-05T04:55:14.605Z,87.15
2022-08-05T04:57:47.887Z,86.89
2022-08-05T05:00:23.674Z,86.83
2022-08-05T05:02:52.556Z,86.54
2022-08-05T05:05:28.654Z,85.67
2022-08-05T05:08:14.456Z,85.01
2022-08-05T05:10:56.685Z,84.43
2022-08-05T05:13:25.400Z,84.13
2022-08-05T05:15:56.522Z,84.01
2022-08-05T05:18:31.375Z,83.92
2022-08-05T05:21:03.759Z,83.74
2022-08-05T05:24:02.044Z,83.53
2022-08-05T05:26:28.434Z,83.39
2022-08-05T05:29:02.367Z,83.26
2022-08-05T05:34:02.516Z,82.69
2022-08-05T05:36:32.020Z,82.54
2022-08-05T05:39:00.576Z,82.19
2022-08-05T05:41:40.874Z,82.10
2022-08-05T05:44:35.921Z,81.83
2022-08-05T05:47:04.605Z,81.82
2022-08-05T05:49:41.994Z,81.76
2022-08-05T05:52:13.067Z,81.74
2022-08-05T05:55:01.325Z,81.64
2022-08-05T05:57:42.794Z,81.57
2022-08-05T06:00:21.939Z,81.25
2022-08-05T06:03:28.272Z,81.11
2022-08-05T06:05:55.573Z,81.08
2022-08-05T06:08:31.498Z,80.84
2022-08-05T06:11:01.835Z,80.63
2022-08-05T06:13:30.441Z,80.53
2022-08-05T06:16:29.543Z,80.56
2022-08-05T06:18:59.957Z,80.41
2022-08-05T06:21:36.881Z,80.29
2022-08-05T06:24:11.852Z,80.34
2022-08-05T06:26:51.286Z,79.94
2022-08-05T06:29:25.161Z,79.83
2022-08-05T06:32:21.430Z,79.77
2022-08-05T06:34:58.727Z,79.67
2022-08-05T06:37:58.354Z,79.57
2022-08-05T06:40:18.118Z,79.38
2022-08-05T06:42:52.335Z,79.01
2022-08-05T06:45:43.984Z,78.78
2022-08-05T06:48:36.216Z,78.78
2022-08-05T06:51:00.230Z,78.33
2022-08-05T06:53:29.375Z,78.09
2022-08-05T06:55:59.606Z,77.86
2022-08-05T06:58:29.723Z,77.41
2022-08-05T07:01:06.796Z,77.25
2022-08-05T07:03:35.628Z,77.20
2022-08-05T07:06:06.086Z,77.21
2022-08-05T07:08:47.628Z,77.00
2022-08-05T07:11:22.675Z,77.09
2022-08-05T07:14:20.236Z,76.97
2022-08-05T07:18:08.484Z,76.99
2022-08-05T07:22:30.085Z,75.99
2022-08-05T07:25:22.459Z,76.10
2022-08-05T07:27:58.585Z,76.12
2022-08-05T07:30:38.922Z,75.93
2022-08-05T07:33:16.135Z,75.48
2022-08-05T07:36:01.557Z,74.85
2022-08-05T07:38:43.421Z,73.95
2022-08-05T07:42:13.563Z,72.86
2022-08-05T07:44:19.255Z,73.20
2022-08-05T07:46:50.305Z,73.30
2022-08-05T07:49:19.929Z,72.84
2022-08-05T07:51:54.861Z,72.40
2022-08-05T07:54:31.042Z,72.04
2022-08-05T07:57:23.680Z,71.76
2022-08-05T07:59:53.632Z,71.47
2022-08-05T08:02:31.233Z,71.13
2022-08-05T08:05:16.603Z,71.05
2022-08-05T08:07:59.678Z,70.94
2022-08-05T08:10:30.302Z,70.66
2022-08-05T08:12:59.203Z,70.48
2022-08-05T08:16:35.877Z,70.49
2022-08-05T08:18:20.966Z,70.29
2022-08-05T08:21:01.907Z,69.71
2022-08-05T08:24:01.968Z,69.43
2022-08-05T08:26:26.954Z,69.20
2022-08-05T08:29:09.727Z,68.90
2022-08-05T08:31:50.455Z,68.51
2022-08-05T08:34:30.268Z,68.14
2022-08-05T08:37:04.670Z,67.37
2022-08-05T08:39:37.331Z,66.89
2022-08-05T08:42:41.961Z,66.24
2022-08-05T08:45:24.776Z,65.90
2022-08-05T08:48:11.777Z,65.24
2022-08-05T08:51:22.319Z,64.90
2022-08-05T08:53:40.330Z,64.68
2022-08-05T08:56:14.340Z,64.05
2022-08-05T08:58:47.894Z,64.02
2022-08-05T09:01:19.703Z,62.97
2022-08-05T09:03:57.348Z,61.70
2022-08-05T09:06:29.899Z,60.30
2022-08-05T09:09:01.846Z,60.03
2022-08-05T09:11:51.071Z,61.20
2022-08-05T09:14:58.425Z,60.35
2022-08-05T09:17:42.256Z,60.19
2022-08-05T09:20:05.867Z,59.54
2022-08-05T09:23:07.612Z,59.55
2022-08-05T09:26:00.353Z,59.04
2022-08-05T09:28:31.841Z,58.73
2022-08-05T09:31:23.394Z,58.30
2022-08-05T09:34:01.458Z,57.73
2022-08-05T09:36:59.441Z,57.70
2022-08-05T09:39:45.536Z,57.75
2022-08-05T09:42:24.017Z,58.01
2022-08-05T09:45:17.656Z,57.41
2022-08-05T09:47:55.184Z,57.37
2022-08-05T09:50:38.435Z,57.12
2022-08-05T09:53:22.713Z,56.59
2022-08-05T09:56:04.002Z,55.80
2022-08-05T09:58:41.975Z,55.60
2022-08-05T10:01:15.687Z,55.40
2022-08-05T10:04:16.022Z,54.79
2022-08-05T10:06:59.528Z,53.85
2022-08-05T10:09:29.855Z,52.79
2022-08-05T10:12:30.562Z,52.01
2022-08-05T10:15:22.597Z,52.01
2022-08-05T10:18:13.031Z,51.50
2022-08-05T10:20:48.836Z,51.08
2022-08-05T10:23:55.971Z,51.77
2022-08-05T10:26:13.875Z,52.18
2022-08-05T10:28:46.512Z,51.72
2022-08-05T10:32:51.790Z,51.19
2022-08-05T10:34:08.884Z,51.45
2022-08-05T10:36:41.893Z,51.49
2022-08-05T10:39:59.130Z,51.24
2022-08-05T10:42:33.934Z,51.01
2022-08-05T10:45:21.530Z,50.57
2022-08-05T10:47:56.705Z,49.74
2022-08-05T10:51:21.913Z,49.38
2022-08-05T10:53:51.396Z,49.09
2022-08-05T10:56:25.981Z,48.57
2022-08-05T10:58:55.092Z,48.08
2022-08-05T11:01:54.082Z,47.54
2022-08-05T11:04:28.190Z,45.99
2022-08-05T11:07:04.789Z,45.62
2022-08-05T11:09:51.536Z,45.10
2022-08-05T11:12:42.332Z,44.73
2022-08-05T11:15:24.153Z,44.74
2022-08-05T11:18:24.746Z,45.25
2022-08-05T11:20:54.936Z,46.05
2022-08-05T11:24:02.691Z,46.52
2022-08-05T11:26:28.526Z,46.10
2022-08-05T11:29:13.871Z,45.94
2022-08-05T11:31:58.537Z,45.72
2022-08-05T11:34:51.393Z,45.79
2022-08-05T11:38:29.053Z,45.80
2022-08-05T11:41:35.639Z,45.65
2022-08-05T11:44:40.230Z,45.20
2022-08-05T11:47:10.512Z,44.78
2022-08-05T11:49:51.035Z,44.65
2022-08-05T11:52:29.744Z,44.72
2022-08-05T11:55:07.534Z,43.18
2022-08-05T11:58:09.352Z,42.08
2022-08-05T12:00:38.472Z,41.43
2022-08-05T12:03:29.349Z,41.13
2022-08-05T12:06:06.556Z,41.17
2022-08-05T12:08:51.254Z,41.08
2022-08-05T12:11:40.418Z,41.48
2022-08-05T12:14:10.585Z,42.45
2022-08-05T12:16:45.201Z,42.25
2022-08-05T12:20:17.159Z,41.97
2022-08-05T12:22:09.393Z,41.60
2022-08-05T12:24:50.497Z,41.66
2022-08-05T12:27:32.761Z,41.68
2022-08-05T12:30:10.579Z,40.91
2022-08-05T12:32:53.848Z,40.77
2022-08-05T12:35:37.246Z,40.97
2022-08-05T12:38:10.908Z,40.84
2022-08-05T12:40:40.091Z,40.91
2022-08-05T12:43:12.863Z,40.04
2022-08-05T12:45:55.560Z,38.77
2022-08-05T12:48:32.372Z,39.03
2022-08-05T12:51:21.706Z,38.49
2022-08-05T12:54:05.106Z,38.78
2022-08-05T12:56:53.822Z,38.64
2022-08-05T12:59:46.427Z,38.78
2022-08-05T13:02:17.081Z,38.76
2022-08-05T13:04:54.383Z,38.63
2022-08-05T13:07:56.194Z,39.77
2022-08-05T13:10:20.194Z,40.15
2022-08-05T13:12:51.077Z,40.48
2022-08-05T13:15:41.373Z,40.70
2022-08-05T13:18:20.518Z,40.72
2022-08-05T13:20:49.976Z,41.18
2022-08-05T13:23:22.705Z,40.91
2022-08-05T13:25:59.682Z,40.36
2022-08-05T13:28:32.345Z,40.09
2022-08-05T13:31:03.291Z,40.19
2022-08-05T13:34:24.373Z,39.70
2022-08-05T13:36:30.988Z,39.65
2022-08-05T13:38:59.794Z,39.64
2022-08-05T13:41:35.924Z,39.39
2022-08-05T13:44:08.022Z,39.10
2022-08-05T13:47:01.715Z,38.69
2022-08-05T13:49:27.171Z,37.18
2022-08-05T13:51:56.432Z,36.50
2022-08-05T13:54:26.544Z,36.22
2022-08-05T13:56:55.325Z,36.22
2022-08-05T14:11:20.646Z,38.20
2022-08-05T14:13:55.037Z,38.32
2022-08-05T14:16:26.368Z,38.29
2022-08-05T14:18:54.978Z,37.95
2022-08-05T14:22:06.864Z,38.31
2022-08-05T14:24:13.698Z,38.30
2022-08-05T14:27:08.376Z,38.21
2022-08-05T14:29:36.584Z,38.51
2022-08-05T14:32:27.277Z,38.49
2022-08-05T14:34:54.663Z,37.44
2022-08-05T14:37:45.623Z,36.23
2022-08-05T14:40:16.913Z,36.28
2022-08-05T14:42:45.636Z,36.14
2022-08-05T14:45:14.154Z,36.52
2022-08-05T14:48:05.368Z,36.58
2022-08-05T14:50:32.661Z,36.99
2022-08-05T14:53:01.519Z,37.20
2022-08-05T14:55:39.297Z,37.60
2022-08-05T14:58:11.646Z,37.86
2022-08-05T15:00:59.739Z,38.02
2022-08-05T15:03:33.968Z,38.10
2022-08-05T15:06:14.987Z,38.23
2022-08-05T15:08:59.233Z,38.05
2022-08-05T15:11:51.809Z,37.77
2022-08-05T15:14:34.768Z,37.45
2022-08-05T15:17:44.614Z,37.32
2022-08-05T15:19:58.380Z,37.17
2022-08-05T15:22:28.199Z,35.72
2022-08-05T15:24:59.196Z,34.88
2022-08-05T15:27:32.059Z,35.15
2022-08-05T15:30:00.975Z,35.40
2022-08-05T15:32:29.682Z,35.19
2022-08-05T15:35:10.370Z,35.58
2022-08-05T15:38:32.741Z,35.48
2022-08-05T15:41:21.360Z,36.12
2022-08-05T15:43:45.404Z,36.92
2022-08-05T15:46:15.760Z,37.67
2022-08-05T15:48:51.998Z,37.96
2022-08-05T15:52:12.459Z,37.67
2022-08-05T15:54:16.894Z,37.42
2022-08-05T15:56:45.491Z,37.28
2022-08-05T15:59:20.028Z,37.27
2022-08-05T16:01:53.284Z,37.23
2022-08-05T16:04:25.598Z,37.54
2022-08-05T16:06:55.520Z,38.00
2022-08-05T16:09:25.397Z,36.33
2022-08-05T16:11:54.464Z,34.91
2022-08-05T16:14:23.875Z,34.27
2022-08-05T16:16:54.603Z,33.85
2022-08-05T16:20:03.621Z,33.61
2022-08-05T16:22:13.332Z,33.85
2022-08-05T16:24:51.829Z,34.57
2022-08-05T16:27:46.802Z,35.26
2022-08-05T16:30:25.787Z,36.51
2022-08-05T16:32:55.487Z,37.06
2022-08-05T16:35:28.651Z,37.04
2022-08-05T16:38:18.678Z,37.18
2022-08-05T16:40:55.145Z,36.94
2022-08-05T16:43:35.052Z,36.90
2022-08-05T16:46:13.102Z,37.03
2022-08-05T16:48:53.306Z,37.51
2022-08-05T16:51:42.581Z,37.70
2022-08-05T16:54:26.159Z,37.54
2022-08-05T16:56:56.047Z,37.32
2022-08-05T16:59:24.825Z,35.74
2022-08-05T17:01:57.113Z,35.31
2022-08-05T17:04:28.241Z,35.40
2022-08-05T17:07:03.349Z,35.78
2022-08-05T17:09:58.290Z,36.18
2022-08-05T17:12:50.583Z,36.89
2022-08-05T17:15:19.574Z,37.13
2022-08-05T17:17:55.427Z,37.47
2022-08-05T17:20:25.088Z,37.21
2022-08-05T17:22:58.975Z,37.30
2022-08-05T17:25:39.377Z,37.67
2022-08-05T17:28:10.028Z,37.54
2022-08-05T17:30:42.754Z,37.75
2022-08-05T17:33:21.629Z,38.14
2022-08-05T17:36:08.944Z,37.88
2022-08-05T17:38:39.947Z,37.77
2022-08-05T17:41:22.958Z,38.50
2022-08-05T17:43:58.577Z,38.21
2022-08-05T17:46:30.562Z,38.68
2022-08-05T17:49:00.057Z,40.25
2022-08-05T17:51:30.091Z,40.96
2022-08-05T17:54:09.360Z,42.35
2022-08-05T17:56:38.430Z,44.20
2022-08-05T17:59:06.981Z,45.44
2022-08-05T18:01:49.249Z,45.27
2022-08-05T18:04:21.471Z,45.06
2022-08-05T18:07:00.306Z,45.71
2022-08-05T18:10:00.032Z,45.57
2022-08-05T18:12:22.354Z,46.11
2022-08-05T18:14:52.941Z,46.39
2022-08-05T18:17:59.024Z,46.62
2022-08-05T18:20:14.100Z,46.79
2022-08-05T18:22:53.783Z,47.20
2022-08-05T18:25:25.211Z,47.43
2022-08-05T18:28:05.221Z,48.21
2022-08-05T18:30:34.922Z,49.26
2022-08-05T18:33:03.675Z,49.41
2022-08-05T18:36:01.371Z,49.12
2022-08-05T18:38:26.468Z,50.48
2022-08-05T18:41:55.476Z,51.08
2022-08-05T18:43:49.139Z,52.01
2022-08-05T18:46:19.788Z,52.63
2022-08-05T18:48:53.912Z,53.53
2022-08-05T18:52:06.301Z,53.11
2022-08-05T18:54:31.939Z,52.51
2022-08-05T18:57:02.684Z,53.02
2022-08-05T18:59:43.586Z,53.49
2022-08-05T19:02:26.681Z,53.85
2022-08-05T19:05:02.885Z,53.69
2022-08-05T19:07:50.269Z,53.86
2022-08-05T19:10:26.600Z,53.99
2022-08-05T19:12:57.615Z,54.19
2022-08-05T19:15:57.845Z,54.40
2022-08-05T19:18:20.811Z,54.84
2022-08-05T19:20:52.896Z,54.95
2022-08-05T19:24:03.502Z,55.32
2022-08-05T19:26:11.955Z,55.50
2022-08-05T19:28:44.597Z,56.05
2022-08-05T19:31:17.781Z,56.20
2022-08-05T19:33:56.249Z,57.77
2022-08-05T19:36:26.511Z,57.98
2022-08-05T19:39:01.171Z,58.13
2022-08-05T19:41:58.293Z,58.29
2022-08-05T19:44:20.249Z,58.67
2022-08-05T19:46:50.161Z,59.12
2022-08-05T19:49:19.078Z,59.59
2022-08-05T19:52:09.079Z,59.71
2022-08-05T19:54:36.873Z,59.86
2022-08-05T19:57:09.865Z,60.23
2022-08-05T19:59:54.663Z,60.57
2022-08-05T20:02:31.436Z,61.17
2022-08-05T20:05:00.435Z,61.34
2022-08-05T20:07:46.346Z,61.83
2022-08-05T20:10:22.352Z,62.12
2022-08-05T20:12:54.964Z,62.53
2022-08-05T20:15:51.779Z,62.35
2022-08-05T20:18:33.821Z,62.56
2022-08-05T20:21:01.378Z,62.58
2022-08-05T20:23:40.033Z,62.34
2022-08-05T20:26:24.723Z,62.47
2022-08-05T20:28:57.594Z,62.43
2022-08-05T20:31:42.063Z,62.36
2022-08-05T20:34:18.614Z,62.34
2022-08-05T20:36:48.760Z,62.03
2022-08-05T20:39:18.779Z,62.27
2022-08-05T20:41:48.173Z,62.21
2022-08-05T20:44:29.401Z,62.01
2022-08-05T20:47:03.503Z,62.09
2022-08-05T20:49:33.223Z,62.32
2022-08-05T20:52:10.599Z,62.42
2022-08-05T20:54:55.266Z,62.39
2022-08-05T20:57:43.408Z,62.32
2022-08-05T21:00:41.232Z,61.98
2022-08-05T21:03:07.918Z,62.08
2022-08-05T21:05:54.783Z,62.11
2022-08-05T21:08:28.217Z,62.97
2022-08-05T21:11:12.978Z,63.36
2022-08-05T21:14:01.468Z,63.56
2022-08-05T21:16:30.849Z,63.26
2022-08-05T21:19:01.605Z,63.19
2022-08-05T21:21:39.896Z,63.53
2022-08-05T21:24:19.350Z,63.22
2022-08-05T21:26:58.037Z,63.08
2022-08-05T21:29:32.142Z,63.00
2022-08-05T21:32:03.004Z,63.17
2022-08-05T21:34:33.142Z,63.36
2022-08-05T21:37:05.218Z,63.56
2022-08-05T21:39:40.263Z,63.90
2022-08-05T21:42:43.938Z,64.28
2022-08-05T21:44:59.759Z,64.22
2022-08-05T21:47:55.029Z,64.65
2022-08-05T21:50:17.769Z,64.99
2022-08-05T21:52:47.338Z,65.20
2022-08-05T21:55:18.143Z,65.25
2022-08-05T21:58:06.886Z,65.73
2022-08-05T22:00:40.144Z,65.81
2022-08-05T22:03:15.264Z,65.96
2022-08-05T22:05:48.932Z,66.22
2022-08-05T22:08:22.141Z,66.29
2022-08-05T22:10:53.529Z,66.62
2022-08-05T22:14:32.384Z,66.92
2022-08-05T22:16:26.059Z,67.20
2022-08-05T22:18:59.031Z,67.18
2022-08-05T22:21:27.675Z,67.30
2022-08-05T22:24:40.344Z,67.69
2022-08-05T22:27:23.106Z,67.71
2022-08-05T22:29:54.271Z,69.66
2022-08-05T22:32:23.166Z,69.76
2022-08-05T22:34:52.622Z,69.57
2022-08-05T22:37:22.396Z,69.69
2022-08-05T22:39:51.084Z,69.72
2022-08-05T22:42:26.218Z,69.45
2022-08-05T22:44:57.034Z,69.75
2022-08-05T22:47:28.897Z,69.56
2022-08-05T22:50:20.329Z,69.67
2022-08-05T22:52:52.690Z,69.76
2022-08-05T22:55:23.697Z,70.24
2022-08-05T22:57:53.746Z,70.47
2022-08-05T23:00:24.100Z,70.73
2022-08-05T23:02:56.340Z,71.27
2022-08-05T23:05:27.023Z,71.43
2022-08-05T23:07:55.637Z,71.67
2022-08-05T23:10:24.498Z,71.96
2022-08-05T23:12:55.586Z,72.39
2022-08-05T23:15:29.420Z,72.82
2022-08-05T23:18:06.205Z,73.33
2022-08-05T23:20:40.504Z,73.63
2022-08-05T23:23:11.932Z,73.86
2022-08-05T23:25:52.100Z,74.40
2022-08-05T23:28:29.070Z,74.61
2022-08-05T23:31:15.942Z,74.88
2022-08-05T23:34:04.226Z,75.24
2022-08-05T23:36:38.575Z,75.47
2022-08-05T23:39:09.210Z,75.70
2022-08-05T23:41:41.009Z,76.06
2022-08-05T23:44:17.032Z,76.38
2022-08-05T23:46:48.693Z,76.69
2022-08-05T23:49:23.663Z,76.96
2022-08-05T23:52:12.785Z,77.07
2022-08-05T23:54:47.939Z,77.26
2022-08-05T23:57:16.736Z,77.75
